sensor_id;sensor_type;location;lat;lon;timestamp;pressure;altitude;pressure_sealevel;temperature;humidity
5966;BME280;3009;43.224;27.976;2023-07-29T00:01:13;100185.38;;;20.00;100.00
5966;BME280;3009;43.224;27.976;2023-07-29T00:03:41;100184.16;;;19.90;100.00
5966;BME280;3009;43.224;27.976;2023-07-29T00:06:10;100181.88;;;19.96;100.00
5966;BME280;3009;43.224;27.976;2023-07-29T00:08:38;100184.25;;;20.05;100.00
5966;BME280;3009;43.224;27.976;2023-07-29T00:11:06;100181.91;;;20.03;100.00
5966;BME280;3009;43.224;27.976;2023-07-29T00:13:35;100181.25;;;20.17;100.00
5966;BME280;3009;43.224;27.976;2023-07-29T00:16:05;100170.78;;;20.23;100.00
5966;BME280;3009;43.224;27.976;2023-07-29T00:18:34;100177.41;;;20.25;100.00
5966;BME280;3009;43.224;27.976;2023-07-29T00:21:02;100170.44;;;20.28;100.00
5966;BME280;3009;43.224;27.976;2023-07-29T00:23:31;100170.06;;;20.29;100.00
5966;BME280;3009;43.224;27.976;2023-07-29T00:25:59;100169.63;;;20.27;100.00
5966;BME280;3009;43.224;27.976;2023-07-29T00:28:28;100163.41;;;20.27;100.00
5966;BME280;3009;43.224;27.976;2023-07-29T00:30:56;100170.81;;;20.26;100.00
5966;BME280;3009;43.224;27.976;2023-07-29T00:33:26;100165.78;;;20.32;100.00
5966;BME280;3009;43.224;27.976;2023-07-29T00:35:55;100163.41;;;20.27;100.00
5966;BME280;3009;43.224;27.976;2023-07-29T00:38:23;100164.25;;;20.38;100.00
5966;BME280;3009;43.224;27.976;2023-07-29T00:40:52;100162.28;;;20.35;100.00
5966;BME280;3009;43.224;27.976;2023-07-29T00:43:20;100152.16;;;20.32;100.00
5966;BME280;3009;43.224;27.976;2023-07-29T00:45:49;100155.63;;;20.25;100.00
5966;BME280;3009;43.224;27.976;2023-07-29T00:48:18;100144.03;;;20.35;100.00
5966;BME280;3009;43.224;27.976;2023-07-29T00:50:48;100146.34;;;20.33;100.00
5966;BME280;3009;43.224;27.976;2023-07-29T00:53:17;100148.72;;;20.39;100.00
5966;BME280;3009;43.224;27.976;2023-07-29T00:55:45;100144.78;;;20.32;100.00
5966;BME280;3009;43.224;27.976;2023-07-29T00:58:14;100137.44;;;20.40;100.00
5966;BME280;3009;43.224;27.976;2023-07-29T01:00:42;100135.09;;;20.39;100.00
5966;BME280;3009;43.224;27.976;2023-07-29T01:03:11;100137.00;;;20.34;100.00
5966;BME280;3009;43.224;27.976;2023-07-29T01:05:46;100144.75;;;20.25;100.00
5966;BME280;3009;43.224;27.976;2023-07-29T01:08:24;100139.31;;;20.29;100.00
5966;BME280;3009;43.224;27.976;2023-07-29T01:11:03;100140.81;;;20.23;100.00
5966;BME280;3009;43.224;27.976;2023-07-29T01:13:37;100132.25;;;20.17;100.00
5966;BME280;3009;43.224;27.976;2023-07-29T01:16:10;100126.75;;;20.10;100.00
5966;BME280;3009;43.224;27.976;2023-07-29T01:18:43;100125.59;;;20.11;100.00
5966;BME280;3009;43.224;27.976;2023-07-29T01:21:15;100126.75;;;20.10;100.00
5966;BME280;3009;43.224;27.976;2023-07-29T01:23:47;100124.75;;;19.99;100.00
5966;BME280;3009;43.224;27.976;2023-07-29T01:26:20;100122.38;;;19.94;100.00
5966;BME280;3009;43.224;27.976;2023-07-29T01:28:48;100124.28;;;19.90;100.00
5966;BME280;3009;43.224;27.976;2023-07-29T01:31:20;100122.72;;;19.89;100.00
5966;BME280;3009;43.224;27.976;2023-07-29T01:33:57;100120.38;;;19.84;100.00
5966;BME280;3009;43.224;27.976;2023-07-29T01:36:28;100122.16;;;19.73;100.00
5966;BME280;3009;43.224;27.976;2023-07-29T01:39:00;100116.25;;;19.60;100.00
5966;BME280;3009;43.224;27.976;2023-07-29T01:41:30;100115.00;;;19.50;100.00
5966;BME280;3009;43.224;27.976;2023-07-29T01:43:59;100117.84;;;19.23;100.00
5966;BME280;3009;43.224;27.976;2023-07-29T01:46:27;100121.25;;;19.13;100.00
5966;BME280;3009;43.224;27.976;2023-07-29T01:48:56;100122.00;;;19.10;100.00
5966;BME280;3009;43.224;27.976;2023-07-29T01:51:25;100119.69;;;19.16;100.00
5966;BME280;3009;43.224;27.976;2023-07-29T01:53:54;100119.88;;;19.34;100.00
5966;BME280;3009;43.224;27.976;2023-07-29T01:56:24;100113.81;;;19.47;100.00
5966;BME280;3009;43.224;27.976;2023-07-29T01:58:52;100120.50;;;19.57;100.00
5966;BME280;3009;43.224;27.976;2023-07-29T02:01:21;100117.34;;;19.52;100.00
5966;BME280;3009;43.224;27.976;2023-07-29T02:03:49;100123.53;;;19.48;100.00
5966;BME280;3009;43.224;27.976;2023-07-29T02:06:22;100126.88;;;19.31;100.00
5966;BME280;3009;43.224;27.976;2023-07-29T02:08:51;100136.72;;;19.09;100.00
5966;BME280;3009;43.224;27.976;2023-07-29T02:11:19;100132.13;;;19.13;100.00
5966;BME280;3009;43.224;27.976;2023-07-29T02:13:55;100135.22;;;19.11;100.00
5966;BME280;3009;43.224;27.976;2023-07-29T02:16:24;100132.44;;;19.08;100.00
5966;BME280;3009;43.224;27.976;2023-07-29T02:18:52;100124.63;;;19.03;100.00
5966;BME280;3009;43.224;27.976;2023-07-29T02:21:22;100130.47;;;19.05;100.00
5966;BME280;3009;43.224;27.976;2023-07-29T02:23:51;100127.16;;;19.22;100.00
5966;BME280;3009;43.224;27.976;2023-07-29T02:26:19;100122.19;;;19.28;100.00
5966;BME280;3009;43.224;27.976;2023-07-29T02:28:47;100122.94;;;19.28;100.00
5966;BME280;3009;43.224;27.976;2023-07-29T02:31:20;100113.97;;;19.24;100.00
5966;BME280;3009;43.224;27.976;2023-07-29T02:33:49;100111.13;;;19.10;100.00
5966;BME280;3009;43.224;27.976;2023-07-29T02:36:17;100121.47;;;19.01;100.00
5966;BME280;3009;43.224;27.976;2023-07-29T02:38:46;100119.03;;;18.88;100.00
5966;BME280;3009;43.224;27.976;2023-07-29T02:41:14;100124.66;;;18.76;100.00
5966;BME280;3009;43.224;27.976;2023-07-29T02:43:48;100127.66;;;18.67;100.00
5966;BME280;3009;43.224;27.976;2023-07-29T02:46:18;100129.09;;;18.57;100.00
5966;BME280;3009;43.224;27.976;2023-07-29T02:48:47;100134.44;;;18.50;100.00
5966;BME280;3009;43.224;27.976;2023-07-29T02:51:15;100150.69;;;18.47;100.00
5966;BME280;3009;43.224;27.976;2023-07-29T02:53:43;100143.69;;;18.46;100.00
5966;BME280;3009;43.224;27.976;2023-07-29T02:56:12;100144.88;;;18.48;100.00
5966;BME280;3009;43.224;27.976;2023-07-29T02:58:40;100141.44;;;18.51;100.00
5966;BME280;3009;43.224;27.976;2023-07-29T03:01:09;100142.31;;;18.59;100.00
5966;BME280;3009;43.224;27.976;2023-07-29T03:03:39;100142.25;;;18.55;100.00
5966;BME280;3009;43.224;27.976;2023-07-29T03:06:12;100133.69;;;18.53;100.00
5966;BME280;3009;43.224;27.976;2023-07-29T03:08:41;100136.47;;;18.57;100.00
5966;BME280;3009;43.224;27.976;2023-07-29T03:11:10;100133.06;;;18.64;100.00
5966;BME280;3009;43.224;27.976;2023-07-29T03:13:39;100126.97;;;18.74;100.00
5966;BME280;3009;43.224;27.976;2023-07-29T03:16:09;100124.00;;;18.83;100.00
5966;BME280;3009;43.224;27.976;2023-07-29T03:18:39;100130.09;;;19.06;100.00
5966;BME280;3009;43.224;27.976;2023-07-29T03:21:09;100138.22;;;19.85;100.00
5966;BME280;3009;43.224;27.976;2023-07-29T03:23:38;100138.06;;;20.85;100.00
5966;BME280;3009;43.224;27.976;2023-07-29T03:26:06;100126.56;;;21.79;100.00
5966;BME280;3009;43.224;27.976;2023-07-29T03:28:39;100124.34;;;22.91;86.48
5966;BME280;3009;43.224;27.976;2023-07-29T03:31:08;100131.09;;;23.95;79.82
5966;BME280;3009;43.224;27.976;2023-07-29T03:33:36;100136.47;;;24.78;72.87
5966;BME280;3009;43.224;27.976;2023-07-29T03:36:06;100129.41;;;25.62;70.20
5966;BME280;3009;43.224;27.976;2023-07-29T03:38:35;100125.59;;;26.24;67.22
5966;BME280;3009;43.224;27.976;2023-07-29T03:41:07;100124.84;;;26.63;63.54
5966;BME280;3009;43.224;27.976;2023-07-29T03:43:36;100134.13;;;26.49;62.98
5966;BME280;3009;43.224;27.976;2023-07-29T03:46:05;100126.88;;;26.19;65.36
5966;BME280;3009;43.224;27.976;2023-07-29T03:48:37;100135.34;;;26.48;66.32
5966;BME280;3009;43.224;27.976;2023-07-29T03:51:07;100132.06;;;28.25;57.16
5966;BME280;3009;43.224;27.976;2023-07-29T03:53:35;100141.16;;;28.81;52.88
5966;BME280;3009;43.224;27.976;2023-07-29T03:56:04;100135.41;;;29.65;47.81
5966;BME280;3009;43.224;27.976;2023-07-29T03:58:32;100131.84;;;30.13;45.98
5966;BME280;3009;43.224;27.976;2023-07-29T04:01:01;100136.34;;;30.64;45.09
5966;BME280;3009;43.224;27.976;2023-07-29T04:03:31;100137.34;;;30.79;43.77
5966;BME280;3009;43.224;27.976;2023-07-29T04:06:00;100137.13;;;30.96;42.53
5966;BME280;3009;43.224;27.976;2023-07-29T04:08:30;100139.97;;;31.73;40.01
5966;BME280;3009;43.224;27.976;2023-07-29T04:10:58;100135.53;;;31.67;39.60
5966;BME280;3009;43.224;27.976;2023-07-29T04:13:27;100142.34;;;30.93;41.47
5966;BME280;3009;43.224;27.976;2023-07-29T04:15:55;100141.53;;;31.93;39.56
5966;BME280;3009;43.224;27.976;2023-07-29T04:18:24;100135.47;;;32.59;37.36
5966;BME280;3009;43.224;27.976;2023-07-29T04:20:52;100141.97;;;33.08;36.65
5966;BME280;3009;43.224;27.976;2023-07-29T04:23:21;100135.56;;;32.13;38.05
5966;BME280;3009;43.224;27.976;2023-07-29T04:25:50;100141.69;;;31.80;38.23
5966;BME280;3009;43.224;27.976;2023-07-29T04:28:19;100141.03;;;32.59;37.25
5966;BME280;3009;43.224;27.976;2023-07-29T04:30:48;100143.84;;;31.85;39.23
5966;BME280;3009;43.224;27.976;2023-07-29T04:33:16;100138.22;;;30.45;43.93
5966;BME280;3009;43.224;27.976;2023-07-29T04:35:45;100137.75;;;27.56;57.59
5966;BME280;3009;43.224;27.976;2023-07-29T04:38:13;100141.81;;;26.78;67.46
5966;BME280;3009;43.224;27.976;2023-07-29T04:40:42;100128.72;;;27.39;65.51
5966;BME280;3009;43.224;27.976;2023-07-29T04:43:12;100144.28;;;28.54;61.02
5966;BME280;3009;43.224;27.976;2023-07-29T04:45:42;100142.38;;;28.67;58.49
5966;BME280;3009;43.224;27.976;2023-07-29T04:48:11;100150.34;;;29.42;55.50
5966;BME280;3009;43.224;27.976;2023-07-29T04:50:40;100147.91;;;30.05;52.64
5966;BME280;3009;43.224;27.976;2023-07-29T04:53:08;100147.97;;;30.81;44.86
5966;BME280;3009;43.224;27.976;2023-07-29T04:55:36;100156.97;;;32.22;36.13
5966;BME280;3009;43.224;27.976;2023-07-29T04:58:05;100151.59;;;33.31;34.14
5966;BME280;3009;43.224;27.976;2023-07-29T05:00:35;100163.59;;;30.97;38.59
5966;BME280;3009;43.224;27.976;2023-07-29T05:03:03;100160.69;;;32.89;34.86
5966;BME280;3009;43.224;27.976;2023-07-29T05:05:32;100168.25;;;34.58;32.16
5966;BME280;3009;43.224;27.976;2023-07-29T05:08:00;100165.59;;;32.94;34.72
5966;BME280;3009;43.224;27.976;2023-07-29T05:10:29;100161.28;;;30.07;37.56
5966;BME280;3009;43.224;27.976;2023-07-29T05:12:57;100158.28;;;32.63;33.82
5966;BME280;3009;43.224;27.976;2023-07-29T05:15:26;100155.56;;;32.26;34.99
5966;BME280;3009;43.224;27.976;2023-07-29T05:17:56;100160.69;;;33.32;33.90
5966;BME280;3009;43.224;27.976;2023-07-29T05:20:24;100150.38;;;33.32;33.19
5966;BME280;3009;43.224;27.976;2023-07-29T05:22:53;100153.75;;;34.84;30.96
5966;BME280;3009;43.224;27.976;2023-07-29T05:25:21;100153.78;;;35.55;29.47
5966;BME280;3009;43.224;27.976;2023-07-29T05:27:49;100149.63;;;36.12;28.33
5966;BME280;3009;43.224;27.976;2023-07-29T05:30:18;100152.56;;;34.75;29.75
5966;BME280;3009;43.224;27.976;2023-07-29T05:32:46;100157.38;;;35.40;29.40
5966;BME280;3009;43.224;27.976;2023-07-29T05:35:17;100155.88;;;36.53;27.86
5966;BME280;3009;43.224;27.976;2023-07-29T05:37:45;100157.25;;;35.49;28.98
5966;BME280;3009;43.224;27.976;2023-07-29T05:40:14;100149.97;;;36.19;28.57
5966;BME280;3009;43.224;27.976;2023-07-29T05:42:42;100156.47;;;37.33;27.43
5966;BME280;3009;43.224;27.976;2023-07-29T05:45:12;100158.50;;;37.98;25.98
5966;BME280;3009;43.224;27.976;2023-07-29T05:47:41;100155.72;;;37.98;26.02
5966;BME280;3009;43.224;27.976;2023-07-29T05:50:10;100155.06;;;37.60;26.56
5966;BME280;3009;43.224;27.976;2023-07-29T05:52:39;100155.22;;;37.02;27.40
5966;BME280;3009;43.224;27.976;2023-07-29T05:55:08;100153.19;;;36.97;27.53
5966;BME280;3009;43.224;27.976;2023-07-29T05:57:36;100155.25;;;37.45;26.80
5966;BME280;3009;43.224;27.976;2023-07-29T06:00:08;100157.38;;;37.18;27.16
5966;BME280;3009;43.224;27.976;2023-07-29T06:02:37;100153.56;;;37.65;26.28
5966;BME280;3009;43.224;27.976;2023-07-29T06:05:07;100151.44;;;38.14;25.79
5966;BME280;3009;43.224;27.976;2023-07-29T06:07:35;100153.25;;;38.40;25.43
5966;BME280;3009;43.224;27.976;2023-07-29T06:10:05;100155.06;;;38.66;24.88
5966;BME280;3009;43.224;27.976;2023-07-29T06:12:35;100148.69;;;38.54;25.72
5966;BME280;3009;43.224;27.976;2023-07-29T06:15:05;100158.03;;;37.45;26.18
5966;BME280;3009;43.224;27.976;2023-07-29T06:17:33;100151.28;;;37.69;26.68
5966;BME280;3009;43.224;27.976;2023-07-29T06:20:02;100154.91;;;37.75;26.76
5966;BME280;3009;43.224;27.976;2023-07-29T06:22:31;100153.28;;;36.76;27.12
5966;BME280;3009;43.224;27.976;2023-07-29T06:24:59;100146.69;;;37.60;26.25
5966;BME280;3009;43.224;27.976;2023-07-29T06:27:29;100153.81;;;37.67;25.80
5966;BME280;3009;43.224;27.976;2023-07-29T06:29:58;100148.63;;;36.99;27.16
5966;BME280;3009;43.224;27.976;2023-07-29T06:32:26;100146.91;;;37.56;25.98
5966;BME280;3009;43.224;27.976;2023-07-29T06:34:55;100150.69;;;36.72;26.96
5966;BME280;3009;43.224;27.976;2023-07-29T06:37:23;100153.97;;;36.39;27.89
5966;BME280;3009;43.224;27.976;2023-07-29T06:39:51;100147.72;;;37.19;26.59
5966;BME280;3009;43.224;27.976;2023-07-29T06:42:20;100156.94;;;36.09;27.91
5966;BME280;3009;43.224;27.976;2023-07-29T06:44:50;100154.16;;;36.30;28.11
5966;BME280;3009;43.224;27.976;2023-07-29T06:47:18;100162.09;;;36.69;27.25
5966;BME280;3009;43.224;27.976;2023-07-29T06:49:46;100164.63;;;35.32;29.43
5966;BME280;3009;43.224;27.976;2023-07-29T06:52:15;100153.72;;;37.01;26.64
5966;BME280;3009;43.224;27.976;2023-07-29T06:54:43;100158.59;;;37.49;26.19
5966;BME280;3009;43.224;27.976;2023-07-29T06:57:12;100164.22;;;36.48;25.78
5966;BME280;3009;43.224;27.976;2023-07-29T06:59:40;100161.09;;;37.47;25.20
5966;BME280;3009;43.224;27.976;2023-07-29T07:02:10;100163.91;;;36.72;26.15
5966;BME280;3009;43.224;27.976;2023-07-29T07:04:38;100159.38;;;36.22;26.86
5966;BME280;3009;43.224;27.976;2023-07-29T07:07:07;100160.66;;;34.43;29.67
5966;BME280;3009;43.224;27.976;2023-07-29T07:09:36;100164.66;;;35.94;29.58
5966;BME280;3009;43.224;27.976;2023-07-29T07:12:05;100165.81;;;36.86;28.60
5966;BME280;3009;43.224;27.976;2023-07-29T07:14:33;100162.63;;;36.73;29.32
5966;BME280;3009;43.224;27.976;2023-07-29T07:17:02;100165.47;;;37.54;28.19
5966;BME280;3009;43.224;27.976;2023-07-29T07:19:32;100164.16;;;37.44;28.67
5966;BME280;3009;43.224;27.976;2023-07-29T07:22:00;100169.28;;;37.13;29.51
5966;BME280;3009;43.224;27.976;2023-07-29T07:24:29;100160.91;;;36.76;31.00
5966;BME280;3009;43.224;27.976;2023-07-29T07:26:57;100168.84;;;36.57;30.77
5966;BME280;3009;43.224;27.976;2023-07-29T07:29:26;100167.66;;;35.90;31.65
5966;BME280;3009;43.224;27.976;2023-07-29T07:31:54;100166.72;;;36.46;30.91
5966;BME280;3009;43.224;27.976;2023-07-29T07:34:23;100167.81;;;36.54;31.01
5966;BME280;3009;43.224;27.976;2023-07-29T07:36:53;100167.69;;;36.16;31.20
5966;BME280;3009;43.224;27.976;2023-07-29T07:39:21;100161.69;;;36.24;31.04
5966;BME280;3009;43.224;27.976;2023-07-29T07:41:50;100164.81;;;35.84;32.45
5966;BME280;3009;43.224;27.976;2023-07-29T07:44:18;100168.66;;;35.72;31.62
5966;BME280;3009;43.224;27.976;2023-07-29T07:46:46;100163.66;;;35.20;32.09
5966;BME280;3009;43.224;27.976;2023-07-29T07:49:15;100165.25;;;35.06;32.94
5966;BME280;3009;43.224;27.976;2023-07-29T07:51:43;100172.00;;;34.01;35.13
5966;BME280;3009;43.224;27.976;2023-07-29T07:54:13;100162.94;;;33.67;35.48
5966;BME280;3009;43.224;27.976;2023-07-29T07:56:42;100163.09;;;34.12;34.94
5966;BME280;3009;43.224;27.976;2023-07-29T07:59:11;100159.88;;;33.65;35.42
5966;BME280;3009;43.224;27.976;2023-07-29T08:01:43;100159.34;;;33.18;36.21
5966;BME280;3009;43.224;27.976;2023-07-29T08:04:11;100154.34;;;32.27;37.33
5966;BME280;3009;43.224;27.976;2023-07-29T08:06:40;100152.91;;;31.17;39.57
5966;BME280;3009;43.224;27.976;2023-07-29T08:09:08;100149.97;;;30.36;42.20
5966;BME280;3009;43.224;27.976;2023-07-29T08:11:38;100154.34;;;29.28;45.56
5966;BME280;3009;43.224;27.976;2023-07-29T08:14:06;100151.09;;;28.78;47.30
5966;BME280;3009;43.224;27.976;2023-07-29T08:16:35;100148.44;;;28.45;48.45
5966;BME280;3009;43.224;27.976;2023-07-29T08:19:04;100143.81;;;28.13;51.58
5966;BME280;3009;43.224;27.976;2023-07-29T08:21:33;100148.59;;;27.96;52.40
5966;BME280;3009;43.224;27.976;2023-07-29T08:24:02;100146.59;;;27.80;53.53
5966;BME280;3009;43.224;27.976;2023-07-29T08:26:31;100140.66;;;27.65;56.46
5966;BME280;3009;43.224;27.976;2023-07-29T08:29:01;100150.13;;;27.64;56.14
5966;BME280;3009;43.224;27.976;2023-07-29T08:31:29;100131.34;;;27.26;59.66
5966;BME280;3009;43.224;27.976;2023-07-29T08:34:00;100130.84;;;27.15;60.48
5966;BME280;3009;43.224;27.976;2023-07-29T08:36:29;100128.16;;;27.28;58.54
5966;BME280;3009;43.224;27.976;2023-07-29T08:38:57;100127.06;;;27.41;59.75
5966;BME280;3009;43.224;27.976;2023-07-29T08:41:28;100126.16;;;27.48;58.47
5966;BME280;3009;43.224;27.976;2023-07-29T08:44:06;100118.91;;;27.38;62.26
5966;BME280;3009;43.224;27.976;2023-07-29T08:46:39;100111.59;;;27.48;59.99
5966;BME280;3009;43.224;27.976;2023-07-29T08:49:08;100117.78;;;27.35;60.44
5966;BME280;3009;43.224;27.976;2023-07-29T08:51:38;100116.25;;;27.34;60.29
5966;BME280;3009;43.224;27.976;2023-07-29T08:54:07;100110.88;;;27.27;61.27
5966;BME280;3009;43.224;27.976;2023-07-29T08:56:36;100109.41;;;27.22;63.25
5966;BME280;3009;43.224;27.976;2023-07-29T08:59:07;100116.88;;;27.05;68.15
5966;BME280;3009;43.224;27.976;2023-07-29T09:01:36;100105.53;;;27.20;73.85
5966;BME280;3009;43.224;27.976;2023-07-29T09:04:04;100103.75;;;27.13;70.08
5966;BME280;3009;43.224;27.976;2023-07-29T09:06:33;100102.59;;;27.11;72.09
5966;BME280;3009;43.224;27.976;2023-07-29T09:09:03;100106.91;;;27.12;74.08
5966;BME280;3009;43.224;27.976;2023-07-29T09:11:32;100102.06;;;26.83;81.04
5966;BME280;3009;43.224;27.976;2023-07-29T09:14:01;100097.25;;;26.87;81.16
5966;BME280;3009;43.224;27.976;2023-07-29T09:16:31;100101.47;;;26.92;81.72
5966;BME280;3009;43.224;27.976;2023-07-29T09:19:02;100102.81;;;26.83;85.90
5966;BME280;3009;43.224;27.976;2023-07-29T09:21:31;100103.97;;;26.86;86.72
5966;BME280;3009;43.224;27.976;2023-07-29T09:24:03;100101.13;;;26.90;84.80
5966;BME280;3009;43.224;27.976;2023-07-29T09:26:31;100100.78;;;26.87;84.41
5966;BME280;3009;43.224;27.976;2023-07-29T09:29:01;100098.25;;;26.77;83.07
5966;BME280;3009;43.224;27.976;2023-07-29T09:31:30;100102.22;;;26.76;82.40
5966;BME280;3009;43.224;27.976;2023-07-29T09:34:00;100110.66;;;26.65;83.36
5966;BME280;3009;43.224;27.976;2023-07-29T09:36:31;100108.47;;;26.76;81.75
5966;BME280;3009;43.224;27.976;2023-07-29T09:39:00;100115.78;;;26.63;85.29
5966;BME280;3009;43.224;27.976;2023-07-29T09:41:30;100103.41;;;26.75;84.21
5966;BME280;3009;43.224;27.976;2023-07-29T09:43:59;100116.56;;;26.83;86.02
5966;BME280;3009;43.224;27.976;2023-07-29T09:46:34;100111.22;;;26.76;90.39
5966;BME280;3009;43.224;27.976;2023-07-29T09:49:04;100103.25;;;26.82;87.48
5966;BME280;3009;43.224;27.976;2023-07-29T09:51:37;100108.97;;;27.08;85.54
5966;BME280;3009;43.224;27.976;2023-07-29T09:54:06;100113.06;;;26.99;88.45
5966;BME280;3009;43.224;27.976;2023-07-29T09:56:39;100112.72;;;26.97;88.08
5966;BME280;3009;43.224;27.976;2023-07-29T09:59:09;100111.84;;;26.64;92.48
5966;BME280;3009;43.224;27.976;2023-07-29T10:01:40;100107.34;;;26.74;91.53
5966;BME280;3009;43.224;27.976;2023-07-29T10:04:09;100117.16;;;26.55;94.35
5966;BME280;3009;43.224;27.976;2023-07-29T10:06:40;100104.38;;;26.64;93.61
5966;BME280;3009;43.224;27.976;2023-07-29T10:09:10;100107.91;;;26.65;97.87
5966;BME280;3009;43.224;27.976;2023-07-29T10:11:39;100112.50;;;26.72;96.44
5966;BME280;3009;43.224;27.976;2023-07-29T10:14:08;100112.41;;;26.95;96.67
5966;BME280;3009;43.224;27.976;2023-07-29T10:16:37;100114.91;;;26.69;100.00
5966;BME280;3009;43.224;27.976;2023-07-29T10:19:09;100111.69;;;26.91;97.74
5966;BME280;3009;43.224;27.976;2023-07-29T10:21:39;100107.06;;;26.88;97.54
5966;BME280;3009;43.224;27.976;2023-07-29T10:24:15;100108.13;;;26.74;99.28
5966;BME280;3009;43.224;27.976;2023-07-29T10:26:45;100106.72;;;26.86;97.92
5966;BME280;3009;43.224;27.976;2023-07-29T10:29:15;100115.09;;;26.79;95.64
5966;BME280;3009;43.224;27.976;2023-07-29T10:31:47;100112.63;;;26.64;98.44
5966;BME280;3009;43.224;27.976;2023-07-29T10:34:17;100121.13;;;26.90;95.83
5966;BME280;3009;43.224;27.976;2023-07-29T10:36:46;100119.44;;;26.96;94.87
5966;BME280;3009;43.224;27.976;2023-07-29T10:39:15;100113.94;;;26.96;94.36
5966;BME280;3009;43.224;27.976;2023-07-29T10:41:57;100118.56;;;26.99;96.58
5966;BME280;3009;43.224;27.976;2023-07-29T10:44:50;100116.00;;;26.92;96.84
5966;BME280;3009;43.224;27.976;2023-07-29T10:47:23;100097.75;;;26.82;94.83
5966;BME280;3009;43.224;27.976;2023-07-29T10:49:55;100106.91;;;26.75;95.61
5966;BME280;3009;43.224;27.976;2023-07-29T10:52:40;100096.84;;;26.68;97.30
5966;BME280;3009;43.224;27.976;2023-07-29T10:55:29;100107.69;;;26.56;98.23
5966;BME280;3009;43.224;27.976;2023-07-29T10:58:13;100096.97;;;26.61;96.81
5966;BME280;3009;43.224;27.976;2023-07-29T11:00:42;100096.91;;;26.85;93.67
5966;BME280;3009;43.224;27.976;2023-07-29T11:03:12;100103.72;;;26.97;94.06
5966;BME280;3009;43.224;27.976;2023-07-29T11:05:45;100096.09;;;26.68;94.84
5966;BME280;3009;43.224;27.976;2023-07-29T11:08:20;100099.47;;;26.76;95.05
5966;BME280;3009;43.224;27.976;2023-07-29T11:11:03;100097.97;;;26.51;99.39
5966;BME280;3009;43.224;27.976;2023-07-29T11:13:33;100097.13;;;26.54;97.70
5966;BME280;3009;43.224;27.976;2023-07-29T11:16:03;100110.03;;;26.37;100.00
5966;BME280;3009;43.224;27.976;2023-07-29T11:18:33;100106.44;;;26.40;99.91
5966;BME280;3009;43.224;27.976;2023-07-29T11:21:03;100103.00;;;26.36;100.00
5966;BME280;3009;43.224;27.976;2023-07-29T11:23:33;100112.50;;;26.31;100.00
5966;BME280;3009;43.224;27.976;2023-07-29T11:26:02;100098.13;;;26.44;100.00
5966;BME280;3009;43.224;27.976;2023-07-29T11:28:38;100112.00;;;26.37;100.00
5966;BME280;3009;43.224;27.976;2023-07-29T11:31:07;100104.59;;;26.53;100.00
5966;BME280;3009;43.224;27.976;2023-07-29T11:33:38;100094.75;;;26.56;100.00
5966;BME280;3009;43.224;27.976;2023-07-29T11:36:18;100089.56;;;26.58;100.00
5966;BME280;3009;43.224;27.976;2023-07-29T11:38:47;100092.56;;;26.47;100.00
5966;BME280;3009;43.224;27.976;2023-07-29T11:41:19;100101.56;;;26.48;100.00
5966;BME280;3009;43.224;27.976;2023-07-29T11:43:47;100093.13;;;26.39;100.00
5966;BME280;3009;43.224;27.976;2023-07-29T11:46:21;100097.75;;;26.42;100.00
5966;BME280;3009;43.224;27.976;2023-07-29T11:48:49;100087.75;;;26.31;100.00
5966;BME280;3009;43.224;27.976;2023-07-29T11:51:19;100093.06;;;26.42;100.00
5966;BME280;3009;43.224;27.976;2023-07-29T11:53:48;100082.75;;;26.46;100.00
5966;BME280;3009;43.224;27.976;2023-07-29T11:56:17;100081.91;;;26.49;100.00
5966;BME280;3009;43.224;27.976;2023-07-29T11:58:46;100089.59;;;26.38;100.00
5966;BME280;3009;43.224;27.976;2023-07-29T12:01:14;100089.44;;;26.25;100.00
5966;BME280;3009;43.224;27.976;2023-07-29T12:03:43;100083.25;;;26.41;100.00
5966;BME280;3009;43.224;27.976;2023-07-29T12:06:12;100084.75;;;26.26;100.00
5966;BME280;3009;43.224;27.976;2023-07-29T12:08:42;100082.97;;;26.35;100.00
5966;BME280;3009;43.224;27.976;2023-07-29T12:11:11;100090.16;;;26.29;100.00
5966;BME280;3009;43.224;27.976;2023-07-29T12:13:41;100090.50;;;26.31;100.00
5966;BME280;3009;43.224;27.976;2023-07-29T12:16:10;100091.06;;;26.43;100.00
5966;BME280;3009;43.224;27.976;2023-07-29T12:18:44;100082.50;;;26.41;100.00
5966;BME280;3009;43.224;27.976;2023-07-29T12:21:15;100088.25;;;26.46;99.87
5966;BME280;3009;43.224;27.976;2023-07-29T12:23:45;100090.28;;;26.22;100.00
5966;BME280;3009;43.224;27.976;2023-07-29T12:26:14;100089.31;;;26.32;100.00
5966;BME280;3009;43.224;27.976;2023-07-29T12:28:46;100086.69;;;26.25;100.00
5966;BME280;3009;43.224;27.976;2023-07-29T12:31:14;100081.50;;;26.31;100.00
5966;BME280;3009;43.224;27.976;2023-07-29T12:33:43;100080.34;;;26.28;100.00
5966;BME280;3009;43.224;27.976;2023-07-29T12:36:11;100081.63;;;26.04;100.00
5966;BME280;3009;43.224;27.976;2023-07-29T12:38:42;100089.97;;;26.20;100.00
5966;BME280;3009;43.224;27.976;2023-07-29T12:41:12;100085.66;;;26.19;100.00
5966;BME280;3009;43.224;27.976;2023-07-29T12:43:41;100085.50;;;26.26;100.00
5966;BME280;3009;43.224;27.976;2023-07-29T12:46:09;100086.66;;;26.29;100.00
5966;BME280;3009;43.224;27.976;2023-07-29T12:48:38;100094.03;;;25.68;100.00
5966;BME280;3009;43.224;27.976;2023-07-29T12:51:06;100091.34;;;25.85;100.00
5966;BME280;3009;43.224;27.976;2023-07-29T12:53:34;100092.28;;;26.02;100.00
5966;BME280;3009;43.224;27.976;2023-07-29T12:56:03;100087.47;;;26.06;100.00
5966;BME280;3009;43.224;27.976;2023-07-29T12:58:33;100088.31;;;26.03;100.00
5966;BME280;3009;43.224;27.976;2023-07-29T13:01:01;100083.41;;;25.90;100.00
5966;BME280;3009;43.224;27.976;2023-07-29T13:03:30;100089.53;;;25.98;100.00
5966;BME280;3009;43.224;27.976;2023-07-29T13:05:59;100092.19;;;26.05;100.00
5966;BME280;3009;43.224;27.976;2023-07-29T13:08:29;100097.41;;;25.99;100.00